Emst, Netherlands
Current Conditions -  °F | °C
As of 7:55 AM on Friday 28 Nov 2014 (Local Time) from EHDL Reporting Station
Haze Haze  
Wind Chill: 36°   Ceiling: 8900
Heat Index: 41°   Visibility: 3mi
Dew Point: 39°   Wind: 8mph
Humidity: 93%   Direction: 90°E
Pressure: 29.77"   Gusts: NA
Location:  52.32°N, 5.97°E
Report Text: EHDL 280655Z AUTO 09007KT 5000 BR BKN089 OVC095 05/04 Q1008 WHT
Loading
Personal Weather Stations






























Interactive Weather Map New forecast layout! Learn more

10-Day Weather Forecast

Advertisements
Track Severe Weather on mobile